Frenchville, Maine
Current Conditions -  °F | °C
As of 12:53 AM on Saturday 25 Oct 2014 (Local Time) from KFVE Reporting Station
Overcast Overcast  
Wind Chill: 32°   Ceiling: 4000
Heat Index: 37°   Visibility: 10mi
Dew Point: 34°   Wind: 7mph
Humidity: 89%   Direction: 360°N
Pressure: 29.66"   Gusts: NA
Location:  47.28°N, 68.38°W
Report Text: KFVE 250453Z AUTO 36006KT 10SM SCT031 OVC040 03/01 A2966 RMK AO2 RAE51 SLP049 P0001 T00280011 400780022
Loading
Personal Weather Stations






























Interactive Weather Map
Tropical Storm Tracking
New forecast layout! Learn more

10-Day Weather Forecast

Advertisements
Track Severe Weather on mobile